createdAt,value
2018-08-20T12:07:37.076Z,98220.97
2018-08-20T12:10:06.642Z,98219.72
2018-08-20T12:12:34.834Z,98218.87
2018-08-20T12:15:03.031Z,98223.72
2018-08-20T12:17:31.228Z,98219.98
2018-08-20T12:19:59.454Z,98212.28
2018-08-20T12:22:27.649Z,98208.26
2018-08-20T12:24:55.826Z,98209.98
2018-08-20T12:27:24.007Z,98217.86
2018-08-20T12:29:52.203Z,98211.11
2018-08-20T12:32:20.383Z,98202.79
2018-08-20T12:34:48.579Z,98207.27
2018-08-20T12:37:16.775Z,98201.66
2018-08-20T12:39:44.982Z,98196.23
2018-08-20T12:42:13.182Z,98195.27
2018-08-20T12:44:41.398Z,98188.44
2018-08-20T12:47:09.663Z,98206.80
2018-08-20T12:49:37.918Z,98194.89
2018-08-20T12:52:06.834Z,98189.31
2018-08-20T12:54:35.035Z,98186.87
2018-08-20T12:57:03.248Z,98195.50
2018-08-20T12:59:31.455Z,98179.66
2018-08-20T13:01:59.667Z,98181.08
2018-08-20T13:04:27.859Z,98191.05
2018-08-20T13:06:56.135Z,98180.38
2018-08-20T13:09:24.334Z,98179.13
2018-08-20T13:11:52.527Z,98177.58
2018-08-20T13:14:20.741Z,98181.00
2018-08-20T13:16:48.979Z,98177.45
2018-08-20T13:19:17.234Z,98160.14
2018-08-20T13:21:45.419Z,98164.97
2018-08-20T13:24:13.615Z,98161.17
2018-08-20T13:26:41.795Z,98158.80
2018-08-20T13:29:09.990Z,98164.84
2018-08-20T13:31:38.195Z,98158.58
2018-08-20T13:34:06.924Z,98159.12
2018-08-20T13:36:35.111Z,98158.91
2018-08-20T13:39:03.539Z,98162.32
2018-08-20T13:41:31.748Z,98154.81
2018-08-20T13:43:59.948Z,98153.09
2018-08-20T13:46:28.115Z,98153.30
2018-08-20T13:48:56.330Z,98158.86
2018-08-20T13:51:24.542Z,98142.59
2018-08-20T13:53:52.751Z,98145.28
2018-08-20T13:56:20.919Z,98144.41
2018-08-20T13:58:49.310Z,98143.98
2018-08-20T14:01:17.542Z,98149.02
2018-08-20T14:03:45.717Z,98141.08
2018-08-20T14:06:13.903Z,98132.42
2018-08-20T14:08:42.102Z,98133.36
2018-08-20T14:11:10.300Z,98130.09
2018-08-20T14:13:38.498Z,98130.52
2018-08-20T14:16:06.735Z,98128.27
2018-08-20T14:18:34.927Z,98137.61
2018-08-20T14:21:11.067Z,98134.16
2018-08-20T14:23:40.883Z,98126.62
2018-08-20T14:26:09.071Z,98127.16
2018-08-20T14:28:37.270Z,98123.77
2018-08-20T14:31:05.551Z,98132.89
2018-08-20T14:33:33.802Z,98125.68
2018-08-20T14:36:02.138Z,98134.34
2018-08-20T14:38:30.545Z,98130.09
2018-08-20T14:40:58.827Z,98128.79
2018-08-20T14:43:27.162Z,98131.31
2018-08-20T14:46:00.824Z,98126.53
2018-08-20T14:48:29.111Z,98125.89
2018-08-20T14:50:57.563Z,98130.70
2018-08-20T14:53:26.121Z,98125.59
2018-08-20T14:55:54.418Z,98120.36
2018-08-20T14:58:22.794Z,98118.17
2018-08-20T15:00:50.983Z,98119.84
2018-08-20T15:03:19.214Z,98125.17
2018-08-20T15:05:47.431Z,98117.95
2018-08-20T15:08:15.641Z,98119.56
2018-08-20T15:10:43.826Z,98114.80
2018-08-20T15:13:12.303Z,98116.29
2018-08-20T15:15:40.697Z,98113.25
2018-08-20T15:18:08.711Z,98118.01
2018-08-20T15:20:36.933Z,98118.59
2018-08-20T15:23:05.131Z,98117.37
2018-08-20T15:25:33.307Z,98117.01
2018-08-20T15:28:01.590Z,98119.83
2018-08-20T15:30:29.821Z,98116.15
2018-08-20T15:32:58.018Z,98121.38
2018-08-20T15:35:26.680Z,98119.64
2018-08-20T15:37:54.954Z,98110.37
2018-08-20T15:40:23.144Z,98112.75
2018-08-20T15:42:51.399Z,98103.68
2018-08-20T15:45:19.731Z,98107.34
2018-08-20T15:47:47.977Z,98121.50
2018-08-20T15:50:16.223Z,98105.33
2018-08-20T15:52:44.459Z,98106.92
2018-08-20T15:55:12.663Z,98107.51
2018-08-20T15:57:40.865Z,98118.16
2018-08-20T16:00:10.098Z,98119.12
2018-08-20T16:02:38.918Z,98107.84
2018-08-20T16:05:07.196Z,98113.64
2018-08-20T16:07:35.391Z,98110.85
2018-08-20T16:10:03.612Z,98116.48
2018-08-20T16:12:31.806Z,98115.81
2018-08-20T16:15:00.016Z,98117.10
2018-08-20T16:17:28.217Z,98108.27
2018-08-20T16:19:56.403Z,98109.61
2018-08-20T16:22:24.607Z,98117.14
2018-08-20T16:24:52.799Z,98107.77
2018-08-20T16:27:21.010Z,98114.34
2018-08-20T16:29:49.207Z,98107.94
2018-08-20T16:32:18.286Z,98112.41
2018-08-20T16:34:46.474Z,98107.97
2018-08-20T16:37:14.695Z,98113.39
2018-08-20T16:39:42.988Z,98106.84
2018-08-20T16:42:11.183Z,98105.05
2018-08-20T16:44:39.401Z,98098.84
2018-08-20T16:47:07.612Z,98099.58
2018-08-20T16:49:35.823Z,98106.98
2018-08-20T16:52:04.051Z,98095.08
2018-08-20T16:54:32.302Z,98100.11
2018-08-20T16:57:00.588Z,98103.91
2018-08-20T16:59:29.476Z,98106.39
2018-08-20T17:01:57.740Z,98100.34
2018-08-20T17:04:33.063Z,98102.22
2018-08-20T17:07:02.337Z,98102.86
2018-08-20T17:09:30.590Z,98100.55
2018-08-20T17:11:58.894Z,98091.19
2018-08-20T17:14:27.077Z,98098.25
2018-08-20T17:16:55.475Z,98104.77
2018-08-20T17:19:23.696Z,98097.64
2018-08-20T17:21:51.911Z,98099.09
2018-08-20T17:24:25.246Z,98099.70
2018-08-20T17:26:53.511Z,98110.50
2018-08-20T17:29:23.015Z,98098.72
2018-08-20T17:31:51.238Z,98104.33
2018-08-20T17:34:19.448Z,98107.89
2018-08-20T17:36:47.646Z,98108.38
2018-08-20T17:39:15.927Z,98112.69
2018-08-20T17:41:44.142Z,98114.36
2018-08-20T17:44:12.360Z,98116.36
2018-08-20T17:46:40.788Z,98115.01
2018-08-20T17:49:11.723Z,98117.98
2018-08-20T17:51:39.923Z,98118.50
2018-08-20T17:54:08.123Z,98121.25
2018-08-20T17:56:36.351Z,98113.34
2018-08-20T17:59:10.626Z,98118.02
2018-08-20T18:01:38.866Z,98126.52
2018-08-20T18:04:07.478Z,98125.81
2018-08-20T18:06:47.168Z,98126.91
2018-08-20T18:09:15.458Z,98127.66
2018-08-20T18:11:49.671Z,98125.98
2018-08-20T18:14:18.968Z,98134.41
2018-08-20T18:16:47.169Z,98137.23
2018-08-20T18:19:15.663Z,98134.30
2018-08-20T18:21:43.882Z,98135.29
2018-08-20T18:24:13.245Z,98138.02
2018-08-20T18:26:44.611Z,98134.47
2018-08-20T18:29:12.998Z,98137.41
2018-08-20T18:31:41.275Z,98139.48
2018-08-20T18:34:09.498Z,98140.66
2018-08-20T18:36:37.761Z,98146.73
2018-08-20T18:39:10.675Z,98146.30
2018-08-20T18:42:13.774Z,98142.55
2018-08-20T18:44:42.005Z,98143.85
2018-08-20T18:47:15.437Z,98148.52
2018-08-20T18:49:52.684Z,98162.06
2018-08-20T18:52:22.079Z,98167.45
2018-08-20T18:54:51.603Z,98165.61
2018-08-20T18:57:22.104Z,98174.17
2018-08-20T18:59:50.682Z,98175.55
2018-08-20T19:02:39.710Z,98174.94
2018-08-20T19:05:12.467Z,98176.09
2018-08-20T19:07:40.866Z,98178.59
2018-08-20T19:10:12.812Z,98181.29
2018-08-20T19:12:48.849Z,98187.22
2018-08-20T19:15:27.571Z,98189.29
2018-08-20T19:17:55.815Z,98194.58
2018-08-20T19:20:24.041Z,98188.66
2018-08-20T19:22:52.267Z,98191.20
2018-08-20T19:25:20.446Z,98190.41
2018-08-20T19:27:48.682Z,98187.65
2018-08-20T19:30:23.455Z,98193.13
2018-08-20T19:32:51.735Z,98193.98
2018-08-20T19:35:19.959Z,98198.42
2018-08-20T19:37:48.580Z,98196.08
2018-08-20T19:40:16.875Z,98196.73
2018-08-20T19:42:45.075Z,98205.81
2018-08-20T19:45:13.914Z,98201.58
2018-08-20T19:47:42.118Z,98195.75
2018-08-20T19:50:11.736Z,98207.59
2018-08-20T19:52:40.056Z,98204.42
2018-08-20T19:55:10.755Z,98204.80
2018-08-20T19:57:38.983Z,98201.35
2018-08-20T20:00:10.958Z,98197.36
2018-08-20T20:02:41.087Z,98198.93
2018-08-20T20:05:10.902Z,98200.13
2018-08-20T20:07:39.166Z,98200.74
2018-08-20T20:10:11.230Z,98202.16
2018-08-20T20:12:43.589Z,98205.61
2018-08-20T20:15:11.803Z,98208.83
2018-08-20T20:17:40.043Z,98222.12
2018-08-20T20:20:08.263Z,98214.47
2018-08-20T20:22:37.991Z,98217.28
2018-08-20T20:25:06.693Z,98223.53
2018-08-20T20:27:35.139Z,98220.69
2018-08-20T20:30:03.484Z,98224.70
2018-08-20T20:32:31.746Z,98234.40
2018-08-20T20:35:00.198Z,98239.24
2018-08-20T20:37:28.516Z,98236.22
2018-08-20T20:39:58.812Z,98233.58
2018-08-20T20:42:27.410Z,98244.25
2018-08-20T20:44:55.778Z,98245.05
2018-08-20T20:47:24.043Z,98244.27
2018-08-20T20:49:52.483Z,98247.70
2018-08-20T20:52:20.817Z,98243.47
2018-08-20T20:54:49.033Z,98247.87
2018-08-20T20:57:17.310Z,98252.52
2018-08-20T20:59:45.643Z,98256.96
2018-08-20T21:02:13.843Z,98260.57
2018-08-20T21:04:42.083Z,98254.33
2018-08-20T21:07:10.354Z,98262.19
2018-08-20T21:09:43.887Z,98260.12
2018-08-20T21:15:12.816Z,98260.59
2018-08-20T21:17:41.508Z,98259.15
2018-08-20T21:20:09.838Z,98269.19
2018-08-20T21:22:39.584Z,98269.78
2018-08-20T21:25:09.170Z,98262.59
2018-08-20T21:27:37.386Z,98271.78
2018-08-20T21:30:12.960Z,98221.48
2018-08-20T21:32:47.015Z,98263.29
2018-08-20T21:35:15.611Z,98267.92
2018-08-20T21:37:47.391Z,98265.92
2018-08-20T21:40:19.775Z,98265.50
2018-08-20T21:42:47.982Z,98271.48
2018-08-20T21:45:16.295Z,98267.42
2018-08-20T21:47:44.558Z,98269.81
2018-08-20T21:50:12.791Z,98262.91
2018-08-20T21:52:40.987Z,98270.91
2018-08-20T21:57:58.075Z,98267.91
2018-08-20T22:00:27.326Z,98271.98
2018-08-20T22:02:58.554Z,98271.34
2018-08-20T22:05:27.150Z,98270.97
2018-08-20T22:07:58.280Z,98272.20
2018-08-20T22:10:27.870Z,98277.59
2018-08-20T22:12:56.187Z,98279.45
2018-08-20T22:15:24.462Z,98283.00
2018-08-20T22:17:52.735Z,98289.02
2018-08-20T22:20:20.987Z,98293.20
2018-08-20T22:22:49.235Z,98297.12
2018-08-20T22:25:17.455Z,98296.18
2018-08-20T22:27:50.951Z,98295.56
2018-08-20T22:30:19.215Z,98302.70
2018-08-20T22:32:47.485Z,98307.92
2018-08-20T22:35:20.729Z,98313.03
2018-08-20T22:37:51.268Z,98311.81
2018-08-20T22:40:20.295Z,98311.61
2018-08-20T22:42:51.132Z,98312.55
2018-08-20T22:45:20.315Z,98316.73
2018-08-20T22:47:49.563Z,98317.33
2018-08-20T22:50:17.945Z,98321.91
2018-08-20T22:52:47.878Z,98324.00
2018-08-20T22:55:17.406Z,98316.16
2018-08-20T22:58:17.574Z,98316.30
2018-08-20T23:00:45.847Z,98318.38
2018-08-20T23:03:14.052Z,98320.62
2018-08-20T23:05:42.298Z,98321.75
2018-08-20T23:08:15.858Z,98321.97
2018-08-20T23:10:44.170Z,98326.92
2018-08-20T23:13:12.429Z,98325.35
2018-08-20T23:15:40.783Z,98330.91
2018-08-20T23:18:09.038Z,98329.48
2018-08-20T23:20:37.322Z,98335.69
2018-08-20T23:23:05.549Z,98334.25
2018-08-20T23:25:33.965Z,98327.20
2018-08-20T23:28:11.009Z,98328.16
2018-08-20T23:30:40.787Z,98322.34
2018-08-20T23:33:09.701Z,98322.89
2018-08-20T23:35:37.910Z,98319.80
2018-08-20T23:38:06.115Z,98318.34
2018-08-20T23:40:34.382Z,98319.52
2018-08-20T23:43:02.655Z,98319.19
2018-08-20T23:45:37.391Z,98316.81
2018-08-20T23:48:05.670Z,98323.38
2018-08-20T23:50:33.937Z,98318.54
2018-08-20T23:53:02.150Z,98318.70
2018-08-20T23:55:30.453Z,98321.56
2018-08-20T23:57:58.723Z,98318.53
